createdAt,value
2022-11-23T00:00:14.985Z,0
2022-11-23T00:01:17.477Z,0
2022-11-23T00:02:20.964Z,0
2022-11-23T00:03:24.141Z,0
2022-11-23T00:04:27.191Z,0
2022-11-23T00:05:29.607Z,0
2022-11-23T00:06:32.937Z,0
2022-11-23T00:07:37.366Z,0
2022-11-23T00:08:41.238Z,0
2022-11-23T00:09:44.283Z,0
2022-11-23T00:10:47.636Z,0
2022-11-23T00:11:50.399Z,0
2022-11-23T00:12:53.830Z,0
2022-11-23T00:13:56.335Z,0
2022-11-23T00:14:59.118Z,0
2022-11-23T00:16:01.365Z,0
2022-11-23T00:17:04.152Z,0
2022-11-23T00:18:06.914Z,0
2022-11-23T00:19:10.230Z,0
2022-11-23T00:20:12.719Z,0
2022-11-23T00:21:15.484Z,0
2022-11-23T00:22:18.928Z,0
2022-11-23T00:23:22.775Z,0
2022-11-23T00:24:25.847Z,0
2022-11-23T00:25:28.190Z,0
2022-11-23T00:26:31.308Z,0
2022-11-23T00:27:34.351Z,0
2022-11-23T00:28:36.920Z,0
2022-11-23T00:29:40.280Z,0
2022-11-23T00:30:43.799Z,0
2022-11-23T00:31:46.857Z,0
2022-11-23T00:32:49.989Z,0
2022-11-23T00:33:52.494Z,0
2022-11-23T00:34:55.356Z,0
2022-11-23T00:35:58.219Z,0
2022-11-23T00:37:01.365Z,0
2022-11-23T00:38:04.217Z,0
2022-11-23T00:39:08.503Z,0
2022-11-23T00:40:11.384Z,0
2022-11-23T00:41:14.266Z,0
2022-11-23T00:42:17.584Z,0
2022-11-23T00:43:21.999Z,0
2022-11-23T00:44:24.420Z,0
2022-11-23T00:45:27.377Z,0
2022-11-23T00:46:29.811Z,0
2022-11-23T00:47:32.937Z,0
2022-11-23T00:48:35.988Z,0
2022-11-23T00:49:38.836Z,0
2022-11-23T00:50:41.961Z,0
2022-11-23T00:51:45.560Z,0
2022-11-23T00:52:48.343Z,0
2022-11-23T00:53:51.788Z,0
2022-11-23T00:54:55.671Z,0
2022-11-23T00:55:59.057Z,0
2022-11-23T00:57:01.799Z,0
2022-11-23T00:58:04.030Z,0
2022-11-23T00:59:05.887Z,0
2022-11-23T01:00:08.946Z,0
2022-11-23T01:01:12.112Z,0
2022-11-23T01:02:15.735Z,0
2022-11-23T01:03:18.855Z,0
2022-11-23T01:04:22.459Z,0
2022-11-23T01:05:25.814Z,0
2022-11-23T01:06:29.178Z,0
2022-11-23T01:07:32.008Z,0
2022-11-23T01:08:35.149Z,0
2022-11-23T01:09:38.575Z,0
2022-11-23T01:10:42.101Z,0
2022-11-23T01:11:45.182Z,0
2022-11-23T01:12:47.865Z,0
2022-11-23T01:13:50.350Z,0
2022-11-23T01:14:53.207Z,0
2022-11-23T01:15:56.315Z,0
2022-11-23T01:16:59.169Z,0
2022-11-23T01:18:02.287Z,0
2022-11-23T01:19:05.352Z,0
2022-11-23T01:20:08.784Z,0
2022-11-23T01:21:10.647Z,0
2022-11-23T01:22:14.000Z,0
2022-11-23T01:23:16.802Z,0
2022-11-23T01:24:19.649Z,0
2022-11-23T01:25:22.771Z,0
2022-11-23T01:26:26.356Z,0
2022-11-23T01:27:29.718Z,0
2022-11-23T01:28:32.776Z,0
2022-11-23T01:29:36.106Z,0
2022-11-23T01:30:39.540Z,0
2022-11-23T01:31:46.385Z,0
2022-11-23T01:32:49.621Z,0
2022-11-23T01:33:53.323Z,0
2022-11-23T01:34:56.647Z,0
2022-11-23T01:35:59.688Z,0
2022-11-23T01:37:02.380Z,0
2022-11-23T01:38:05.169Z,0
2022-11-23T01:39:07.940Z,0
2022-11-23T01:40:10.904Z,0
2022-11-23T01:41:14.133Z,0
2022-11-23T01:42:18.075Z,0
2022-11-23T01:43:21.175Z,0
2022-11-23T01:44:24.239Z,0
2022-11-23T01:45:27.228Z,0
2022-11-23T01:46:29.921Z,0
2022-11-23T01:47:32.798Z,0
2022-11-23T01:48:35.495Z,0
2022-11-23T01:49:38.259Z,0
2022-11-23T01:50:40.864Z,0
2022-11-23T01:51:44.564Z,0
2022-11-23T01:52:47.803Z,0
2022-11-23T01:53:50.286Z,0
2022-11-23T01:54:53.039Z,0
2022-11-23T01:55:57.035Z,0
2022-11-23T01:57:00.759Z,0
2022-11-23T01:58:04.295Z,0
2022-11-23T01:59:07.669Z,0
2022-11-23T02:00:11.440Z,0
2022-11-23T02:01:14.144Z,0
2022-11-23T02:02:17.243Z,0
2022-11-23T02:03:20.017Z,0
2022-11-23T02:04:22.586Z,0
2022-11-23T02:05:25.907Z,0
2022-11-23T02:06:29.029Z,0
2022-11-23T02:07:32.412Z,0
2022-11-23T02:08:35.721Z,0
2022-11-23T02:09:38.460Z,0
2022-11-23T02:10:40.613Z,0
2022-11-23T02:11:42.462Z,0
2022-11-23T02:12:45.790Z,0
2022-11-23T02:13:49.865Z,0
2022-11-23T02:14:52.877Z,0
2022-11-23T02:15:56.586Z,0
2022-11-23T02:16:59.424Z,0
2022-11-23T02:18:02.830Z,0
2022-11-23T02:19:05.898Z,0
2022-11-23T02:20:08.804Z,0
2022-11-23T02:21:11.783Z,0
2022-11-23T02:22:13.736Z,0
2022-11-23T02:23:16.240Z,0
2022-11-23T02:24:19.293Z,0
2022-11-23T02:25:22.057Z,0
2022-11-23T02:26:24.468Z,0
2022-11-23T02:27:26.882Z,0
2022-11-23T02:28:29.937Z,0
2022-11-23T02:29:34.164Z,0
2022-11-23T02:30:37.427Z,0
2022-11-23T02:31:40.189Z,0
2022-11-23T02:32:43.701Z,0
2022-11-23T02:33:46.755Z,0
2022-11-23T02:34:49.170Z,0
2022-11-23T02:35:52.495Z,0
2022-11-23T02:36:55.487Z,0
2022-11-23T02:37:58.535Z,0
2022-11-23T02:39:01.383Z,0
2022-11-23T02:40:04.153Z,0
2022-11-23T02:41:06.926Z,0
2022-11-23T02:42:09.625Z,0
2022-11-23T02:43:12.782Z,0
2022-11-23T02:44:14.936Z,0
2022-11-23T02:45:19.051Z,0
2022-11-23T02:46:22.501Z,0
2022-11-23T02:47:25.905Z,0
2022-11-23T02:48:28.842Z,0
2022-11-23T02:49:31.695Z,0
2022-11-23T02:50:35.882Z,0
2022-11-23T02:51:38.921Z,0
2022-11-23T02:52:41.961Z,0
2022-11-23T02:53:44.720Z,0
2022-11-23T02:54:47.478Z,0
2022-11-23T02:55:50.529Z,0
2022-11-23T02:56:53.020Z,0
2022-11-23T02:57:56.086Z,0
2022-11-23T02:58:58.588Z,0
2022-11-23T03:00:01.637Z,0
2022-11-23T03:01:05.627Z,0
2022-11-23T03:02:09.104Z,0
2022-11-23T03:03:11.962Z,0
2022-11-23T03:04:15.028Z,0
2022-11-23T03:05:17.601Z,0
2022-11-23T03:06:20.855Z,0
2022-11-23T03:07:24.359Z,0
2022-11-23T03:08:27.454Z,0
2022-11-23T03:09:30.486Z,0
2022-11-23T03:10:35.769Z,0
2022-11-23T03:11:38.746Z,0
2022-11-23T03:12:41.554Z,0
2022-11-23T03:13:44.050Z,0
2022-11-23T03:14:47.365Z,0
2022-11-23T03:15:49.854Z,0
2022-11-23T03:16:53.724Z,0
2022-11-23T03:17:56.823Z,0
2022-11-23T03:18:59.874Z,0
2022-11-23T03:20:02.856Z,0
2022-11-23T03:21:06.216Z,0
2022-11-23T03:22:09.296Z,0
2022-11-23T03:23:12.399Z,0
2022-11-23T03:24:15.097Z,0
2022-11-23T03:25:18.219Z,0
2022-11-23T03:26:20.985Z,0
2022-11-23T03:27:24.735Z,0
2022-11-23T03:28:27.496Z,0
2022-11-23T03:29:30.331Z,0
2022-11-23T03:30:34.974Z,0
2022-11-23T03:31:37.946Z,0
2022-11-23T03:32:42.048Z,0
2022-11-23T03:33:45.767Z,0
2022-11-23T03:34:48.448Z,0
2022-11-23T03:35:51.756Z,0
2022-11-23T03:36:54.249Z,0
2022-11-23T03:37:57.447Z,0
2022-11-23T03:39:00.021Z,0
2022-11-23T03:40:02.881Z,0
2022-11-23T03:41:05.676Z,0
2022-11-23T03:42:09.179Z,0
2022-11-23T03:43:12.155Z,0
2022-11-23T03:44:14.860Z,0
2022-11-23T03:45:17.451Z,0
2022-11-23T03:46:19.938Z,0
2022-11-23T03:47:22.357Z,0
2022-11-23T03:48:26.231Z,0
2022-11-23T03:49:30.139Z,0
2022-11-23T03:50:35.272Z,0
2022-11-23T03:51:38.519Z,0
2022-11-23T03:52:41.445Z,0
2022-11-23T03:53:44.598Z,0
2022-11-23T03:54:48.002Z,0
2022-11-23T03:55:50.220Z,0
2022-11-23T03:56:53.091Z,0
2022-11-23T03:57:56.137Z,0
2022-11-23T03:58:59.569Z,0
2022-11-23T04:00:02.347Z,0
2022-11-23T04:01:06.065Z,0
2022-11-23T04:02:09.148Z,0
2022-11-23T04:03:11.564Z,0
2022-11-23T04:04:15.836Z,0
2022-11-23T04:05:18.847Z,0
2022-11-23T04:06:21.719Z,0
2022-11-23T04:07:24.898Z,0
2022-11-23T04:08:28.016Z,0
2022-11-23T04:09:31.092Z,0
2022-11-23T04:10:36.115Z,0
2022-11-23T04:11:38.813Z,0
2022-11-23T04:12:42.362Z,0
2022-11-23T04:13:45.336Z,0
2022-11-23T04:14:47.753Z,0
2022-11-23T04:15:50.533Z,0
2022-11-23T04:16:53.315Z,0
2022-11-23T04:17:56.012Z,0
2022-11-23T04:18:58.804Z,0
2022-11-23T04:20:02.661Z,0
2022-11-23T04:21:05.393Z,0
2022-11-23T04:22:08.511Z,0
2022-11-23T04:23:13.458Z,0
2022-11-23T04:24:16.421Z,0
2022-11-23T04:25:19.845Z,0
2022-11-23T04:26:22.274Z,0
2022-11-23T04:27:25.991Z,0
2022-11-23T04:28:29.143Z,0
2022-11-23T04:29:32.455Z,0
2022-11-23T04:30:36.952Z,0
2022-11-23T04:31:40.004Z,0
2022-11-23T04:32:42.815Z,0
2022-11-23T04:33:45.949Z,0
2022-11-23T04:34:49.077Z,0
2022-11-23T04:35:52.942Z,0
2022-11-23T04:36:55.953Z,0
2022-11-23T04:37:58.794Z,0
2022-11-23T04:39:01.564Z,0
2022-11-23T04:40:03.980Z,0
2022-11-23T04:41:06.479Z,0
2022-11-23T04:42:09.910Z,0
2022-11-23T04:43:12.334Z,0
2022-11-23T04:44:15.103Z,0
2022-11-23T04:45:17.940Z,0
2022-11-23T04:46:20.892Z,0
2022-11-23T04:47:23.809Z,0
2022-11-23T04:48:26.018Z,0
2022-11-23T04:49:29.088Z,0
2022-11-23T04:50:33.887Z,0
2022-11-23T04:51:37.469Z,0
2022-11-23T04:52:40.886Z,0
2022-11-23T04:53:43.743Z,0
2022-11-23T04:54:46.803Z,0
2022-11-23T04:55:49.583Z,0
2022-11-23T04:56:52.812Z,0
2022-11-23T04:57:55.891Z,0
2022-11-23T04:58:58.929Z,0
2022-11-23T05:00:01.968Z,0
2022-11-23T05:01:04.243Z,0
2022-11-23T05:02:07.000Z,0
2022-11-23T05:03:09.842Z,0
2022-11-23T05:04:16.382Z,0
2022-11-23T05:05:20.771Z,0
2022-11-23T05:06:23.255Z,0
2022-11-23T05:07:27.429Z,0
2022-11-23T05:08:31.206Z,0
2022-11-23T05:09:34.079Z,0
2022-11-23T05:10:37.870Z,0
2022-11-23T05:11:40.302Z,0
2022-11-23T05:12:43.280Z,0
2022-11-23T05:13:45.853Z,0
2022-11-23T05:14:48.704Z,0
2022-11-23T05:15:51.962Z,0
2022-11-23T05:16:54.667Z,0
2022-11-23T05:17:59.151Z,0
2022-11-23T05:19:01.634Z,0
2022-11-23T05:20:03.851Z,0
2022-11-23T05:21:05.779Z,0
2022-11-23T05:22:08.854Z,0
2022-11-23T05:23:12.669Z,0
2022-11-23T05:24:15.745Z,0
2022-11-23T05:25:18.996Z,0
2022-11-23T05:26:21.803Z,0
2022-11-23T05:27:24.569Z,0
2022-11-23T05:28:39.926Z,0
2022-11-23T05:29:44.743Z,0
2022-11-23T05:30:47.438Z,0
2022-11-23T05:31:51.149Z,0
2022-11-23T05:32:54.482Z,0
2022-11-23T05:33:56.978Z,0
2022-11-23T05:35:00.375Z,0
2022-11-23T05:36:02.790Z,0
2022-11-23T05:37:06.505Z,0
2022-11-23T05:38:09.199Z,0
2022-11-23T05:39:13.326Z,0
2022-11-23T05:40:16.528Z,0
2022-11-23T05:41:19.852Z,0
2022-11-23T05:42:21.702Z,0
2022-11-23T05:43:25.138Z,0
2022-11-23T05:44:28.653Z,0
2022-11-23T05:45:32.088Z,0
2022-11-23T05:46:35.407Z,0
2022-11-23T05:47:38.182Z,0
2022-11-23T05:48:41.236Z,0
2022-11-23T05:49:43.988Z,0
2022-11-23T05:50:47.230Z,0
2022-11-23T05:51:50.298Z,0
2022-11-23T05:52:53.691Z,0
2022-11-23T05:53:57.050Z,0
2022-11-23T05:55:00.926Z,0
2022-11-23T05:56:04.235Z,0
2022-11-23T05:57:06.727Z,0
2022-11-23T05:58:10.357Z,0
2022-11-23T05:59:12.858Z,0
2022-11-23T06:00:15.625Z,0
2022-11-23T06:01:18.322Z,0
2022-11-23T06:02:21.208Z,0
2022-11-23T06:03:24.532Z,0
2022-11-23T06:04:27.214Z,0
2022-11-23T06:05:30.847Z,0
2022-11-23T06:06:33.965Z,0
2022-11-23T06:07:36.899Z,0
2022-11-23T06:08:40.065Z,0
2022-11-23T06:09:51.029Z,0
2022-11-23T06:10:54.824Z,0
2022-11-23T06:11:58.637Z,0
2022-11-23T06:13:01.972Z,0
2022-11-23T06:14:05.645Z,0
2022-11-23T06:15:16.825Z,0
2022-11-23T06:16:19.591Z,0
2022-11-23T06:17:23.062Z,0
2022-11-23T06:18:26.187Z,0
2022-11-23T06:19:28.634Z,4
2022-11-23T06:20:32.852Z,4
2022-11-23T06:21:35.540Z,4
2022-11-23T06:22:38.813Z,0
2022-11-23T06:23:41.971Z,4
2022-11-23T06:24:45.023Z,4
2022-11-23T06:25:47.986Z,4
2022-11-23T06:26:51.851Z,8
2022-11-23T06:27:55.511Z,8
2022-11-23T06:28:58.389Z,12
2022-11-23T06:30:01.753Z,12
2022-11-23T06:31:04.170Z,12
2022-11-23T06:32:07.795Z,16
2022-11-23T06:33:10.585Z,20
2022-11-23T06:34:13.666Z,20
2022-11-23T06:35:15.808Z,24
2022-11-23T06:36:18.226Z,28
2022-11-23T06:37:21.007Z,28
2022-11-23T06:38:24.048Z,36
2022-11-23T06:39:26.829Z,36
2022-11-23T06:40:30.564Z,40
2022-11-23T06:41:34.014Z,44
2022-11-23T06:42:39.645Z,44
2022-11-23T06:43:43.684Z,52
2022-11-23T06:44:46.561Z,60
2022-11-23T06:45:49.976Z,68
2022-11-23T06:46:52.752Z,76
2022-11-23T06:47:55.809Z,88
2022-11-23T06:48:58.575Z,100
2022-11-23T06:50:01.617Z,104
2022-11-23T06:51:04.637Z,112
2022-11-23T06:52:08.318Z,124
2022-11-23T06:53:11.100Z,140
2022-11-23T06:54:13.244Z,152
2022-11-23T06:55:16.731Z,168
2022-11-23T06:56:20.133Z,188
2022-11-23T06:57:22.897Z,200
2022-11-23T06:58:26.731Z,208
2022-11-23T06:59:29.464Z,216
2022-11-23T07:00:35.389Z,232
2022-11-23T07:01:38.891Z,256
2022-11-23T07:02:42.693Z,276
2022-11-23T07:03:46.093Z,284
2022-11-23T07:04:49.276Z,312
2022-11-23T07:05:52.446Z,332
2022-11-23T07:06:55.772Z,356
2022-11-23T07:07:58.829Z,360
2022-11-23T07:09:01.877Z,384
2022-11-23T07:10:07.150Z,424
2022-11-23T07:11:10.929Z,456
2022-11-23T07:12:14.537Z,480
2022-11-23T07:13:17.596Z,500
2022-11-23T07:14:21.694Z,520
2022-11-23T07:15:25.436Z,532
2022-11-23T07:16:28.411Z,536
2022-11-23T07:17:31.449Z,528
2022-11-23T07:18:34.915Z,528
2022-11-23T07:19:37.962Z,532
2022-11-23T07:20:41.291Z,536
2022-11-23T07:21:44.071Z,560
2022-11-23T07:22:47.045Z,580
2022-11-23T07:23:50.798Z,608
2022-11-23T07:24:53.502Z,616
2022-11-23T07:25:56.627Z,600
2022-11-23T07:26:59.621Z,608
2022-11-23T07:28:03.599Z,616
2022-11-23T07:29:06.178Z,636
2022-11-23T07:30:10.155Z,660
2022-11-23T07:31:13.016Z,708
2022-11-23T07:32:15.796Z,796
2022-11-23T07:33:18.771Z,888
2022-11-23T07:34:21.926Z,928
2022-11-23T07:35:24.968Z,944
2022-11-23T07:36:28.105Z,980
2022-11-23T07:37:30.860Z,1044
2022-11-23T07:38:34.092Z,1116
2022-11-23T07:39:56.137Z,1168
2022-11-23T07:41:04.120Z,1244
2022-11-23T07:43:47.776Z,1388
2022-11-23T07:44:50.373Z,1404
2022-11-23T07:45:54.476Z,1492
2022-11-23T07:46:57.564Z,1668
2022-11-23T07:48:00.613Z,1932
2022-11-23T07:49:03.755Z,2160
2022-11-23T07:50:06.553Z,2232
2022-11-23T07:51:09.332Z,2088
2022-11-23T07:52:13.018Z,2036
2022-11-23T07:53:15.707Z,2180
2022-11-23T07:54:23.403Z,2256
2022-11-23T07:55:27.258Z,2280
2022-11-23T07:56:30.611Z,2172
2022-11-23T07:57:33.927Z,2064
2022-11-23T07:58:37.129Z,2108
2022-11-23T07:59:40.742Z,2252
2022-11-23T08:00:43.513Z,2180
2022-11-23T08:01:50.510Z,1988
2022-11-23T08:03:26.457Z,2012
2022-11-23T08:04:32.979Z,2352
2022-11-23T08:05:37.667Z,2516
2022-11-23T08:06:40.483Z,2296
2022-11-23T08:07:43.286Z,2176
2022-11-23T08:08:46.751Z,2352
2022-11-23T08:09:49.828Z,2452
2022-11-23T08:10:54.047Z,2484
2022-11-23T08:11:57.589Z,2576
2022-11-23T08:13:00.713Z,2660
2022-11-23T08:14:03.616Z,2616
2022-11-23T08:15:06.393Z,2588
2022-11-23T08:16:10.149Z,2732
2022-11-23T08:17:14.258Z,2932
2022-11-23T08:18:17.318Z,2868
2022-11-23T08:19:20.168Z,2904
2022-11-23T08:20:23.877Z,3176
2022-11-23T08:21:27.715Z,3320
2022-11-23T08:22:30.490Z,3004
2022-11-23T08:23:33.894Z,2648
2022-11-23T08:24:36.586Z,2608
2022-11-23T08:25:39.715Z,2736
2022-11-23T08:26:42.768Z,2788
2022-11-23T08:27:45.819Z,2892
2022-11-23T08:28:48.380Z,3052
2022-11-23T08:29:51.150Z,3260
2022-11-23T08:30:54.575Z,3208
2022-11-23T08:31:57.902Z,3244
2022-11-23T08:33:02.055Z,2876
2022-11-23T08:34:05.167Z,2616
2022-11-23T08:35:08.499Z,2816
2022-11-23T08:36:12.095Z,2980
2022-11-23T08:37:15.493Z,3168
2022-11-23T08:38:18.430Z,3472
2022-11-23T08:39:21.619Z,3836
2022-11-23T08:40:25.731Z,4116
2022-11-23T08:41:29.708Z,4056
2022-11-23T08:42:33.704Z,4040
2022-11-23T08:43:36.754Z,4172
2022-11-23T08:44:40.216Z,3924
2022-11-23T08:45:43.267Z,3380
2022-11-23T08:46:46.690Z,3404
2022-11-23T08:47:50.047Z,3516
2022-11-23T08:48:54.232Z,3368
2022-11-23T08:49:57.902Z,3604
2022-11-23T08:51:00.984Z,3968
2022-11-23T08:52:04.672Z,4164
2022-11-23T08:53:08.440Z,4040
2022-11-23T08:54:12.147Z,3860
2022-11-23T08:55:14.569Z,3680
2022-11-23T08:56:17.708Z,3980
2022-11-23T08:57:20.840Z,4236
2022-11-23T08:58:23.673Z,4452
2022-11-23T08:59:26.460Z,4772
2022-11-23T09:00:29.222Z,5176
2022-11-23T09:01:31.970Z,5168
2022-11-23T09:02:35.648Z,4992
2022-11-23T09:03:39.157Z,5228
2022-11-23T09:04:43.252Z,5164
2022-11-23T09:05:47.071Z,4924
2022-11-23T09:06:50.047Z,4960
2022-11-23T09:07:53.166Z,5004
2022-11-23T09:08:56.276Z,4684
2022-11-23T09:09:59.033Z,4340
2022-11-23T09:11:01.538Z,4112
2022-11-23T09:12:04.673Z,4024
2022-11-23T09:13:08.109Z,4080
2022-11-23T09:14:11.471Z,4448
2022-11-23T09:15:14.903Z,4884
2022-11-23T09:16:18.266Z,5072
2022-11-23T09:17:21.246Z,5132
2022-11-23T09:18:23.236Z,5224
2022-11-23T09:19:26.007Z,5212
2022-11-23T09:20:30.151Z,5156
2022-11-23T09:21:33.859Z,4720
2022-11-23T09:22:36.918Z,4688
2022-11-23T09:23:40.171Z,4404
2022-11-23T09:24:43.100Z,4244
2022-11-23T09:25:46.678Z,4276
2022-11-23T09:26:49.436Z,3896
2022-11-23T09:27:52.114Z,3660
2022-11-23T09:28:55.173Z,3532
2022-11-23T09:29:58.235Z,3528
2022-11-23T09:31:02.044Z,3684
2022-11-23T09:32:04.553Z,3844
2022-11-23T09:33:07.430Z,4124
2022-11-23T09:34:10.749Z,4284
2022-11-23T09:35:14.071Z,4012
2022-11-23T09:36:18.208Z,3440
2022-11-23T09:37:21.327Z,3148
2022-11-23T09:38:38.547Z,3264
2022-11-23T09:40:00.675Z,3456
2022-11-23T09:41:03.824Z,3488
2022-11-23T09:42:07.077Z,3428
2022-11-23T09:43:10.575Z,3644
2022-11-23T09:44:14.230Z,3920
2022-11-23T09:45:17.635Z,4000
2022-11-23T09:46:20.761Z,3660
2022-11-23T09:47:24.406Z,3436
2022-11-23T09:48:27.104Z,3216
2022-11-23T09:49:29.263Z,2732
2022-11-23T09:50:33.060Z,2368
2022-11-23T09:51:37.268Z,2296
2022-11-23T09:52:40.944Z,2572
2022-11-23T09:53:43.922Z,3316
2022-11-23T09:54:47.279Z,3440
2022-11-23T09:55:50.694Z,3432
2022-11-23T09:56:57.190Z,3408
2022-11-23T09:58:05.043Z,3896
2022-11-23T10:00:12.430Z,3820
2022-11-23T10:01:15.834Z,3444
2022-11-23T10:02:19.920Z,3608
2022-11-23T10:03:23.007Z,4004
2022-11-23T10:04:25.712Z,4324
2022-11-23T10:05:28.882Z,4096
2022-11-23T10:06:32.041Z,3864
2022-11-23T10:07:36.220Z,3992
2022-11-23T10:08:40.375Z,4384
2022-11-23T10:09:43.217Z,4832
2022-11-23T10:10:46.303Z,5116
2022-11-23T10:11:49.024Z,5264
2022-11-23T10:12:52.432Z,5168
2022-11-23T10:13:56.118Z,4512
2022-11-23T10:14:58.818Z,3508
2022-11-23T10:16:02.301Z,3164
2022-11-23T10:17:05.607Z,3140
2022-11-23T10:18:08.364Z,3416
2022-11-23T10:19:11.415Z,3380
2022-11-23T10:20:14.779Z,3756
2022-11-23T10:21:18.141Z,4288
2022-11-23T10:22:21.785Z,4452
2022-11-23T10:23:25.605Z,4364
2022-11-23T10:24:28.724Z,4084
2022-11-23T10:25:37.686Z,3540
2022-11-23T10:26:42.585Z,3108
2022-11-23T10:27:45.644Z,3424
2022-11-23T10:28:49.597Z,4060
2022-11-23T10:29:52.926Z,3884
2022-11-23T10:30:55.729Z,3556
2022-11-23T10:31:58.784Z,3616
2022-11-23T10:33:01.936Z,4552
2022-11-23T10:34:04.698Z,5524
2022-11-23T10:35:08.324Z,6068
2022-11-23T10:36:11.177Z,6504
2022-11-23T10:37:14.612Z,7220
2022-11-23T10:38:19.268Z,6108
2022-11-23T10:39:23.387Z,6124
2022-11-23T10:40:26.478Z,7208
2022-11-23T10:41:29.255Z,9324
2022-11-23T10:42:32.932Z,11584
2022-11-23T10:43:35.925Z,12008
2022-11-23T10:44:38.983Z,10572
2022-11-23T10:45:42.149Z,9968
2022-11-23T10:46:45.876Z,9932
2022-11-23T10:47:49.314Z,9376
2022-11-23T10:48:52.567Z,10356
2022-11-23T10:49:55.988Z,18084
2022-11-23T10:50:59.453Z,16288
2022-11-23T10:52:02.823Z,17344
2022-11-23T10:53:05.719Z,19456
2022-11-23T10:54:08.421Z,15952
2022-11-23T10:55:12.555Z,8840
2022-11-23T10:56:15.664Z,6196
2022-11-23T10:57:18.644Z,4820
2022-11-23T10:58:20.796Z,4536
2022-11-23T10:59:23.217Z,4908
2022-11-23T11:00:30.449Z,4980
2022-11-23T11:01:33.748Z,4912
2022-11-23T11:02:37.069Z,4960
2022-11-23T11:03:39.853Z,5024
2022-11-23T11:04:42.988Z,4704
2022-11-23T11:06:07.918Z,5436
2022-11-23T11:07:14.274Z,6044
2022-11-23T11:08:17.847Z,5696
2022-11-23T11:09:21.057Z,4752
2022-11-23T11:10:25.159Z,4532
2022-11-23T11:11:28.124Z,4956
2022-11-23T11:12:31.210Z,5596
2022-11-23T11:13:34.811Z,5868
2022-11-23T11:14:43.168Z,6428
2022-11-23T11:15:50.109Z,7660
2022-11-23T11:16:53.540Z,7496
2022-11-23T11:17:56.530Z,7092
2022-11-23T11:18:59.122Z,7028
2022-11-23T11:20:01.946Z,6968
2022-11-23T11:21:05.200Z,5744
2022-11-23T11:22:08.534Z,5956
2022-11-23T11:23:11.318Z,6516
2022-11-23T11:24:13.883Z,7236
2022-11-23T11:25:16.585Z,9652
2022-11-23T11:26:20.672Z,11408
2022-11-23T11:27:23.491Z,12276
2022-11-23T11:28:27.196Z,9820
2022-11-23T11:29:34.014Z,7680
2022-11-23T11:30:42.574Z,6920
2022-11-23T11:31:45.637Z,7476
2022-11-23T11:32:48.704Z,7836
2022-11-23T11:33:52.684Z,7304
2022-11-23T11:34:56.474Z,7132
2022-11-23T11:35:59.167Z,7696
2022-11-23T11:37:02.567Z,6680
2022-11-23T11:38:05.978Z,6448
2022-11-23T11:39:18.128Z,6720
2022-11-23T11:40:22.838Z,7180
2022-11-23T11:41:26.366Z,6844
2022-11-23T11:42:29.722Z,6560
2022-11-23T11:43:39.375Z,6920
2022-11-23T11:44:43.738Z,6564
2022-11-23T11:46:06.392Z,6428
2022-11-23T11:47:33.471Z,7244
2022-11-23T11:48:36.896Z,8012
2022-11-23T11:49:40.161Z,7532
2022-11-23T11:50:43.234Z,7788
2022-11-23T11:51:46.597Z,5824
2022-11-23T11:52:50.431Z,4620
2022-11-23T11:53:53.772Z,4604
2022-11-23T11:54:56.073Z,5132
2022-11-23T11:55:58.971Z,5312
2022-11-23T11:57:02.637Z,5664
2022-11-23T11:58:06.290Z,5652
2022-11-23T11:59:09.379Z,5736
2022-11-23T12:00:12.343Z,6252
2022-11-23T12:01:15.408Z,6720
2022-11-23T12:02:18.730Z,7268
2022-11-23T12:03:22.796Z,8260
2022-11-23T12:04:26.477Z,9684
2022-11-23T12:05:30.078Z,9988
2022-11-23T12:06:32.850Z,9844
2022-11-23T12:07:35.400Z,9740
2022-11-23T12:08:38.539Z,7676
2022-11-23T12:09:41.237Z,6436
2022-11-23T12:10:45.244Z,6448
2022-11-23T12:11:48.038Z,6356
2022-11-23T12:12:51.857Z,6196
2022-11-23T12:13:55.530Z,5956
2022-11-23T12:14:58.967Z,5260
2022-11-23T12:16:02.111Z,4716
2022-11-23T12:17:31.145Z,4376
2022-11-23T12:22:05.954Z,4232
2022-11-23T12:23:09.557Z,4736
2022-11-23T12:24:12.801Z,8656
2022-11-23T12:25:15.006Z,9364
2022-11-23T12:26:17.420Z,13692
2022-11-23T12:27:20.198Z,17728
2022-11-23T12:28:23.802Z,19968
2022-11-23T12:29:26.879Z,26752
2022-11-23T12:30:30.202Z,36896
2022-11-23T12:31:33.264Z,49376
2022-11-23T12:32:36.250Z,48640
2022-11-23T12:33:38.947Z,42144
2022-11-23T12:34:41.999Z,43744
2022-11-23T12:35:45.718Z,41120
2022-11-23T12:36:48.695Z,33184
2022-11-23T12:37:51.948Z,24832
2022-11-23T12:38:55.092Z,12832
2022-11-23T12:39:58.425Z,23360
2022-11-23T12:41:01.623Z,24576
2022-11-23T12:42:04.688Z,13060
2022-11-23T12:43:08.293Z,11504
2022-11-23T12:44:12.425Z,11176
2022-11-23T12:45:15.886Z,9860
2022-11-23T12:46:19.396Z,10084
2022-11-23T12:47:22.129Z,12484
2022-11-23T12:48:25.746Z,15844
2022-11-23T12:49:29.163Z,25120
2022-11-23T12:50:41.149Z,33632
2022-11-23T12:51:44.474Z,36224
2022-11-23T12:52:47.284Z,35968
2022-11-23T12:53:50.312Z,27936
2022-11-23T12:54:54.469Z,11952
2022-11-23T12:55:58.221Z,7580
2022-11-23T12:57:01.952Z,6080
2022-11-23T12:58:06.789Z,5308
2022-11-23T12:59:11.804Z,5264
2022-11-23T13:00:17.657Z,5476
2022-11-23T13:01:29.423Z,5952
2022-11-23T13:02:37.096Z,8640
2022-11-23T13:03:43.486Z,16100
2022-11-23T13:04:49.728Z,16368
2022-11-23T13:05:56.693Z,31936
2022-11-23T13:07:27.237Z,9708
2022-11-23T13:08:54.064Z,11780
2022-11-23T13:10:01.165Z,8552
2022-11-23T13:11:06.176Z,7420
2022-11-23T13:12:11.638Z,7300
2022-11-23T13:13:18.577Z,6464
2022-11-23T13:14:24.858Z,7292
2022-11-23T13:15:31.180Z,8428
2022-11-23T13:16:37.976Z,8796
2022-11-23T13:17:45.524Z,10276
2022-11-23T13:18:51.113Z,10136
2022-11-23T13:19:57.275Z,11948
2022-11-23T13:21:03.290Z,7084
2022-11-23T13:22:09.571Z,6820
2022-11-23T13:23:15.249Z,5220
2022-11-23T13:24:20.380Z,4808
2022-11-23T13:25:25.405Z,4460
2022-11-23T13:26:30.047Z,4208
2022-11-23T13:27:34.498Z,3984
2022-11-23T13:28:38.333Z,3808
2022-11-23T13:29:42.240Z,3708
2022-11-23T13:32:21.221Z,3844
2022-11-23T13:33:28.501Z,4028
2022-11-23T13:34:40.728Z,3936
2022-11-23T13:35:43.454Z,3964
2022-11-23T13:37:11.443Z,4064
2022-11-23T13:38:17.435Z,3740
2022-11-23T13:39:20.880Z,3412
2022-11-23T13:40:24.053Z,3044
2022-11-23T13:41:32.057Z,2932
2022-11-23T13:42:36.885Z,3016
2022-11-23T13:43:40.230Z,3412
2022-11-23T13:44:43.957Z,4152
2022-11-23T13:45:47.704Z,5556
2022-11-23T13:46:51.658Z,6348
2022-11-23T13:47:55.090Z,6300
2022-11-23T13:48:58.271Z,5412
2022-11-23T13:50:01.074Z,4792
2022-11-23T13:51:04.131Z,4808
2022-11-23T13:52:07.108Z,5200
2022-11-23T13:53:10.306Z,5524
2022-11-23T13:54:13.662Z,6020
2022-11-23T13:55:16.466Z,6472
2022-11-23T13:56:19.656Z,7016
2022-11-23T13:57:22.467Z,7088
2022-11-23T13:58:25.415Z,6732
2022-11-23T13:59:29.015Z,5948
2022-11-23T14:00:32.539Z,5248
2022-11-23T14:01:36.297Z,4652
2022-11-23T14:02:42.233Z,4244
2022-11-23T14:03:45.788Z,3924
2022-11-23T14:04:48.582Z,3624
2022-11-23T14:05:51.280Z,3404
2022-11-23T14:06:54.610Z,3016
2022-11-23T14:07:58.361Z,2848
2022-11-23T14:09:02.172Z,2740
2022-11-23T14:10:09.805Z,2632
2022-11-23T14:11:12.961Z,2524
2022-11-23T14:12:16.689Z,2472
2022-11-23T14:13:18.974Z,2440
2022-11-23T14:14:22.294Z,2424
2022-11-23T14:15:25.269Z,2444
2022-11-23T14:16:28.368Z,2540
2022-11-23T14:17:31.941Z,2632
2022-11-23T14:18:36.158Z,2672
2022-11-23T14:19:39.314Z,2712
2022-11-23T14:20:42.683Z,2724
2022-11-23T14:21:45.752Z,2720
2022-11-23T14:22:49.003Z,2652
2022-11-23T14:23:52.332Z,2644
2022-11-23T14:24:55.030Z,2456
2022-11-23T14:25:58.085Z,2332
2022-11-23T14:27:17.643Z,2176
2022-11-23T14:28:50.488Z,1976
2022-11-23T14:29:53.917Z,1916
2022-11-23T14:30:56.699Z,1876
2022-11-23T14:31:59.639Z,1852
2022-11-23T14:33:04.202Z,1828
2022-11-23T14:34:08.285Z,1752
2022-11-23T14:35:11.388Z,1672
2022-11-23T14:36:14.365Z,1612
2022-11-23T14:37:17.138Z,1568
2022-11-23T14:38:19.921Z,1520
2022-11-23T14:39:23.533Z,1476
2022-11-23T14:40:26.902Z,1432
2022-11-23T14:41:29.336Z,1392
2022-11-23T14:42:32.768Z,1348
2022-11-23T14:43:36.285Z,1300
2022-11-23T14:44:39.206Z,1256
2022-11-23T14:45:44.442Z,1208
2022-11-23T14:46:47.747Z,1164
2022-11-23T14:47:50.848Z,1120
2022-11-23T14:48:54.276Z,1076
2022-11-23T14:49:58.109Z,1032
2022-11-23T14:51:01.378Z,988
2022-11-23T14:52:04.723Z,948
2022-11-23T14:53:07.856Z,908
2022-11-23T14:54:11.105Z,864
2022-11-23T14:55:13.877Z,828
2022-11-23T14:56:17.150Z,784
2022-11-23T14:57:20.553Z,744